Time;durP1;ratioP1;P1;durP2;ratioP2;P2;SDS_P1;SDS_P2;PMS_P1;PMS_P2;Temp;Humidity;BMP_temperature;BMP_pressure;BME280_temperature;BME280_humidity;BME280_pressure;Samples;Min_cycle;Max_cycle;Signal;HPM_P1;HPM_P2
2022/08/18 00:01:13;;;;;;;16.20;10.32;;;;;;;17.36;100.00;94843.84;5014272;28;20037;-75
2022/08/18 00:03:41;;;;;;;13.75;9.68;;;;;;;17.37;100.00;94842.78;5002153;28;20045;-74
2022/08/18 00:06:25;;;;;;;12.00;10.43;;;;;;;17.29;100.00;94838.09;5016890;28;20038;-75
2022/08/18 00:08:55;;;;;;;14.20;9.43;;;;;;;17.27;100.00;94840.22;4997444;28;20050;-74
2022/08/18 00:11:22;;;;;;;18.83;10.30;;;;;;;17.28;100.00;94836.50;5003032;28;20370;-75
2022/08/18 00:13:49;;;;;;;18.25;10.18;;;;;;;17.22;100.00;94837.63;5012470;28;20100;-74
2022/08/18 00:16:17;;;;;;;13.20;9.75;;;;;;;17.19;100.00;94843.41;4979945;28;20061;-74
2022/08/18 00:18:44;;;;;;;11.85;9.43;;;;;;;17.08;100.00;94820.84;4993820;28;20038;-74
2022/08/18 00:21:11;;;;;;;10.65;9.05;;;;;;;17.17;100.00;94840.28;4993520;28;20046;-74
2022/08/18 00:23:38;;;;;;;11.35;9.38;;;;;;;17.15;100.00;94831.88;4990165;28;20043;-74
2022/08/18 00:26:04;;;;;;;13.10;10.32;;;;;;;17.17;100.00;94824.47;4989689;28;20109;-74
2022/08/18 00:28:31;;;;;;;21.63;12.07;;;;;;;17.14;100.00;94825.00;4982224;28;20037;-74
2022/08/18 00:30:58;;;;;;;14.52;9.98;;;;;;;17.17;100.00;94856.06;4982237;28;20046;-74
2022/08/18 00:33:26;;;;;;;14.10;9.20;;;;;;;17.02;100.00;94843.00;4973082;28;20046;-74
2022/08/18 00:35:53;;;;;;;17.75;9.90;;;;;;;17.01;100.00;94847.44;4990160;28;20038;-75
2022/08/18 00:38:20;;;;;;;10.75;9.25;;;;;;;16.92;100.00;94847.22;4996063;28;20435;-74
2022/08/18 00:40:52;;;;;;;15.73;10.27;;;;;;;16.89;100.00;94845.16;4993454;28;20038;-74
2022/08/18 00:43:30;;;;;;;13.57;9.63;;;;;;;16.85;100.00;94846.72;4978765;28;20050;-74
2022/08/18 00:45:58;;;;;;;11.40;9.05;;;;;;;16.84;100.00;94847.81;4980135;28;20049;-74
2022/08/18 00:48:25;;;;;;;13.35;10.48;;;;;;;16.70;100.00;94831.00;4982431;28;20458;-74
2022/08/18 00:50:56;;;;;;;12.30;10.20;;;;;;;16.79;100.00;94845.16;4996954;28;20045;-74
2022/08/18 00:53:48;;;;;;;11.00;9.68;;;;;;;16.71;100.00;94843.88;4979773;28;20050;-75
2022/08/18 00:56:21;;;;;;;13.48;10.45;;;;;;;16.69;100.00;94855.72;4963631;28;20810;-75
2022/08/18 00:58:56;;;;;;;13.23;9.70;;;;;;;16.65;100.00;94849.41;4976824;28;20637;-75
2022/08/18 01:01:28;;;;;;;14.13;9.98;;;;;;;16.70;100.00;94846.78;4989129;28;20037;-75
2022/08/18 01:04:04;;;;;;;12.63;9.25;;;;;;;16.67;100.00;94857.81;4993839;28;20146;-75
2022/08/18 01:06:38;;;;;;;14.88;11.38;;;;;;;16.62;100.00;94856.78;4967660;28;20203;-75
2022/08/18 01:09:07;;;;;;;20.27;10.07;;;;;;;16.57;100.00;94854.16;4989763;28;20044;-75
2022/08/18 01:11:37;;;;;;;18.45;10.25;;;;;;;16.54;100.00;94857.31;4996209;28;20037;-75
2022/08/18 01:14:07;;;;;;;15.88;9.93;;;;;;;16.53;100.00;94841.81;4982422;28;20723;-75
2022/08/18 01:22:23;;;;;;;18.90;10.05;;;;;;;16.54;100.00;94854.69;5019769;28;20120;-75
2022/08/18 01:27:40;;;;;;;19.92;10.30;;;;;;;16.38;100.00;94840.03;5019320;28;20050;-75
2022/08/18 01:30:12;;;;;;;14.13;10.98;;;;;;;16.47;100.00;94869.97;5003403;28;20052;-75
2022/08/18 01:32:40;;;;;;;18.00;10.77;;;;;;;16.44;100.00;94845.00;5002756;28;20048;-75
2022/08/18 01:35:10;;;;;;;21.48;11.20;;;;;;;16.55;100.00;94861.53;5020628;28;20052;-75
2022/08/18 01:37:37;;;;;;;13.25;9.93;;;;;;;16.58;100.00;94855.75;5003952;28;20045;-75
2022/08/18 01:40:06;;;;;;;15.88;10.20;;;;;;;16.56;100.00;94847.31;5012714;28;20515;-74
2022/08/18 01:42:55;;;;;;;15.20;10.05;;;;;;;16.52;100.00;94845.50;5019111;28;20507;-75
2022/08/18 01:45:22;;;;;;;16.08;11.38;;;;;;;16.25;100.00;94828.22;5002547;28;20053;-75
2022/08/18 01:47:49;;;;;;;15.93;10.55;;;;;;;16.31;100.00;94845.56;5020933;28;20531;-75
2022/08/18 01:50:16;;;;;;;16.83;10.90;;;;;;;16.19;100.00;94843.22;5020493;28;20593;-74
2022/08/18 01:52:44;;;;;;;13.32;10.40;;;;;;;16.19;100.00;94837.97;5002959;28;20099;-75
2022/08/18 01:55:10;;;;;;;14.52;10.27;;;;;;;16.02;100.00;94832.19;5002437;28;20518;-75
2022/08/18 01:57:41;;;;;;;13.35;10.48;;;;;;;16.03;100.00;94836.41;5018510;28;20064;-75
2022/08/18 02:00:11;;;;;;;15.68;10.13;;;;;;;15.98;100.00;94837.19;5002383;28;20037;-76
2022/08/18 02:02:39;;;;;;;14.82;10.48;;;;;;;15.95;100.00;94852.69;5001760;28;20046;-75
2022/08/18 02:05:11;;;;;;;14.63;11.43;;;;;;;15.80;100.00;94824.63;5020071;28;20045;-75
2022/08/18 02:07:38;;;;;;;13.60;10.82;;;;;;;15.85;100.00;94851.66;4999812;28;20050;-75
2022/08/18 02:10:12;;;;;;;24.50;12.25;;;;;;;15.84;100.00;94855.31;4997430;28;20053;-75
2022/08/18 02:12:42;;;;;;;;;;;;;;;15.86;100.00;94845.38;5017075;28;20041;-75
2022/08/18 02:15:10;;;;;;;12.68;9.90;;;;;;;15.75;100.00;94833.25;5002867;28;19929;-75
2022/08/18 02:17:42;;;;;;;12.35;9.13;;;;;;;15.83;100.00;94842.47;5016004;28;20602;-76
2022/08/18 02:20:15;;;;;;;15.05;10.40;;;;;;;15.89;100.00;94848.50;5020750;28;20077;-76
2022/08/18 02:22:43;;;;;;;14.20;10.75;;;;;;;15.91;100.00;94841.16;5001624;28;20042;-76
2022/08/18 02:25:11;;;;;;;13.57;9.98;;;;;;;15.98;100.00;94844.31;5017604;28;20095;-76
2022/08/18 02:27:39;;;;;;;13.40;10.63;;;;;;;15.92;100.00;94826.94;5020755;28;20598;-76
2022/08/18 02:30:09;;;;;;;15.82;10.60;;;;;;;16.04;100.00;94845.84;4996244;28;20068;-75
2022/08/18 02:32:36;;;;;;;18.30;10.40;;;;;;;16.06;100.00;94849.00;5000601;28;20049;-76
2022/08/18 02:35:07;;;;;;;12.52;9.85;;;;;;;16.12;100.00;94855.84;4998195;28;20069;-76
2022/08/18 02:37:39;;;;;;;12.68;10.32;;;;;;;16.07;100.00;94849.81;5020787;28;20041;-76
2022/08/18 02:40:11;;;;;;;12.57;10.02;;;;;;;16.02;100.00;94847.97;5016513;28;20049;-76
2022/08/18 02:42:41;;;;;;;18.20;11.57;;;;;;;15.73;100.00;94809.09;5018072;28;20037;-76
2022/08/18 02:45:09;;;;;;;15.82;9.20;;;;;;;15.78;100.00;94842.47;5001329;28;20033;-76
2022/08/18 02:47:36;;;;;;;15.90;9.23;;;;;;;15.70;100.00;94835.88;5016573;28;20075;-76
2022/08/18 02:50:03;;;;;;;13.07;10.10;;;;;;;15.62;100.00;94842.44;5002601;28;20056;-76
2022/08/18 02:52:32;;;;;;;13.73;10.13;;;;;;;15.59;100.00;94855.28;5002689;28;20128;-76
2022/08/18 02:55:01;;;;;;;11.63;9.73;;;;;;;15.46;100.00;94846.88;5015548;28;20144;-75
2022/08/18 02:57:28;;;;;;;14.43;10.02;;;;;;;15.51;100.00;94853.19;5017861;28;20438;-76
2022/08/18 02:59:56;;;;;;;14.48;10.15;;;;;;;15.40;100.00;94837.44;5015800;28;20109;-75
2022/08/18 03:02:26;;;;;;;13.75;10.60;;;;;;;15.55;100.00;94849.78;4992332;28;20095;-74
2022/08/18 03:04:52;;;;;;;16.85;11.18;;;;;;;15.55;100.00;94849.78;4984157;28;20120;-73
2022/08/18 03:07:19;;;;;;;18.13;11.40;;;;;;;15.49;100.00;94850.81;5008013;28;20057;-74
2022/08/18 03:09:46;;;;;;;18.58;12.13;;;;;;;15.44;100.00;94843.72;5016156;28;20038;-75
2022/08/18 03:12:13;;;;;;;19.98;12.68;;;;;;;15.55;100.00;94849.00;5002497;28;21202;-74
2022/08/18 03:14:40;;;;;;;18.35;11.38;;;;;;;15.45;100.00;94837.44;5019350;28;20037;-75
2022/08/18 03:17:08;;;;;;;17.75;12.07;;;;;;;15.55;100.00;94859.50;5013047;28;20073;-74
2022/08/18 03:19:35;;;;;;;20.05;12.05;;;;;;;15.57;100.00;94857.38;4995668;28;20049;-75
2022/08/18 03:22:04;;;;;;;16.92;11.75;;;;;;;15.60;100.00;94862.13;5008059;28;20049;-74
2022/08/18 03:24:51;;;;;;;15.43;10.60;;;;;;;15.52;100.00;94844.25;5006403;28;20045;-74
2022/08/18 03:27:18;;;;;;;28.52;11.38;;;;;;;15.65;100.00;94870.00;5002675;28;20076;-74
2022/08/18 03:29:45;;;;;;;18.90;11.50;;;;;;;15.54;100.00;94852.66;5029854;28;20041;-74
2022/08/18 03:32:12;;;;;;;18.65;10.25;;;;;;;15.56;100.00;94858.47;5015512;28;20116;-75
2022/08/18 03:34:41;;;;;;;14.90;11.30;;;;;;;15.53;100.00;94861.59;4992109;28;20056;-75
2022/08/18 03:37:09;;;;;;;21.42;10.77;;;;;;;15.42;100.00;94853.69;5015840;28;20062;-75
2022/08/18 03:39:37;;;;;;;20.10;11.38;;;;;;;15.45;100.00;94865.53;4984079;28;20048;-74
2022/08/18 03:42:04;;;;;;;17.23;11.52;;;;;;;15.43;100.00;94873.66;4999526;28;20537;-74
2022/08/18 03:44:35;;;;;;;16.98;11.25;;;;;;;15.46;100.00;94878.38;5013296;28;20080;-74
2022/08/18 03:47:07;;;;;;;17.45;11.23;;;;;;;15.40;100.00;94868.91;5004021;28;20037;-75
2022/08/18 03:49:34;;;;;;;19.63;10.75;;;;;;;15.46;100.00;94872.34;4994805;28;20054;-74
2022/08/18 03:52:04;;;;;;;14.10;11.00;;;;;;;15.40;100.00;94863.66;5021008;28;20044;-74
2022/08/18 03:54:32;;;;;;;18.38;12.05;;;;;;;15.45;100.00;94866.31;5012605;28;20045;-72
2022/08/18 03:56:59;;;;;;;16.83;11.40;;;;;;;15.44;100.00;94863.94;4975452;28;20055;-73
2022/08/18 03:59:29;;;;;;;14.80;10.43;;;;;;;15.39;100.00;94851.59;5012936;28;20335;-73
2022/08/18 04:01:56;;;;;;;17.52;11.65;;;;;;;15.53;100.00;94867.63;4997960;28;20046;-71
2022/08/18 04:04:25;;;;;;;20.83;12.05;;;;;;;15.59;100.00;94881.53;5016012;28;20537;-75
2022/08/18 04:06:59;;;;;;;15.13;10.75;;;;;;;15.51;100.00;94871.56;5007604;28;20128;-75
2022/08/18 04:09:29;;;;;;;15.27;11.15;;;;;;;15.65;100.00;94875.25;4994494;28;20046;-75
2022/08/18 04:11:58;;;;;;;15.90;10.60;;;;;;;15.80;100.00;94883.16;4995961;28;20045;-72
2022/08/18 04:14:31;;;;;;;17.35;10.80;;;;;;;15.86;100.00;94887.38;4992020;28;20416;-72
2022/08/18 04:16:58;;;;;;;18.27;11.45;;;;;;;16.02;100.00;94882.13;5003856;28;20037;-74
2022/08/18 04:19:26;;;;;;;18.35;12.73;;;;;;;16.05;100.00;94873.72;5012241;28;20053;-75
2022/08/18 04:21:56;;;;;;;22.60;11.60;;;;;;;16.09;100.00;94863.47;5002427;28;20345;-66
2022/08/18 04:24:25;;;;;;;19.30;11.18;;;;;;;16.17;100.00;94866.34;5017517;28;20137;-74
2022/08/18 04:26:59;;;;;;;14.45;9.82;;;;;;;16.35;100.00;94877.34;5001937;28;20057;-77
2022/08/18 04:29:27;;;;;;;17.83;10.60;;;;;;;16.31;100.00;94863.16;5022134;28;20029;-77
2022/08/18 04:31:54;;;;;;;24.25;9.75;;;;;;;16.54;100.00;94881.00;5005922;28;20072;-77
2022/08/18 04:34:22;;;;;;;20.20;11.25;;;;;;;16.56;100.00;94875.47;4983230;28;20057;-79
2022/08/18 04:36:52;;;;;;;17.67;11.45;;;;;;;16.65;100.00;94896.75;4993660;28;20060;-79
2022/08/18 04:39:21;;;;;;;16.48;9.98;;;;;;;16.64;100.00;94895.97;5005490;28;20045;-78
2022/08/18 04:41:49;;;;;;;19.63;11.68;;;;;;;16.53;100.00;94884.69;4991706;28;20040;-79
2022/08/18 04:44:17;;;;;;;20.48;11.75;;;;;;;16.63;100.00;94895.16;5031727;28;20043;-79
2022/08/18 04:46:48;;;;;;;14.02;10.65;;;;;;;16.53;100.00;94894.41;5032030;28;20037;-78
2022/08/18 04:49:16;;;;;;;21.55;11.40;;;;;;;16.62;100.00;94914.63;5004942;28;20059;-80
2022/08/18 04:54:53;;;;;;;14.27;11.43;;;;;;;16.79;100.00;94887.25;5003024;28;20121;-78
2022/08/18 04:57:21;;;;;;;18.02;10.60;;;;;;;17.02;100.00;94906.13;5002976;28;20045;-78
2022/08/18 04:59:51;;;;;;;21.48;12.13;;;;;;;17.13;100.00;94912.94;4986926;28;20048;-79
2022/08/18 05:02:19;;;;;;;16.42;11.18;;;;;;;17.23;100.00;94910.22;5018649;28;20042;-78
2022/08/18 05:04:47;;;;;;;14.63;11.40;;;;;;;17.38;100.00;94910.16;5019931;28;20041;-78
2022/08/18 05:07:17;;;;;;;14.77;11.20;;;;;;;17.44;100.00;94899.63;4987073;28;20478;-78
2022/08/18 05:09:45;;;;;;;12.02;9.63;;;;;;;17.64;100.00;94912.66;4998194;28;20120;-78
2022/08/18 05:12:13;;;;;;;16.85;11.45;;;;;;;17.80;100.00;94909.94;5004484;28;20053;-80
2022/08/18 05:14:46;;;;;;;16.52;10.70;;;;;;;17.95;100.00;94918.53;4979458;28;20503;-78
2022/08/18 05:17:14;;;;;;;14.07;10.15;;;;;;;18.12;100.00;94923.41;4986776;28;20065;-77
2022/08/18 05:19:43;;;;;;;15.75;11.25;;;;;;;18.34;100.00;94922.19;4985842;28;20054;-77
2022/08/18 05:22:16;;;;;;;19.67;11.88;;;;;;;18.46;100.00;94925.25;4986712;28;20038;-77
2022/08/18 05:24:44;;;;;;;25.85;20.50;;;;;;;18.51;100.00;94914.66;4995007;28;20046;-77
2022/08/18 05:27:12;;;;;;;21.60;11.27;;;;;;;18.79;100.00;94933.34;4979662;28;20056;-77
2022/08/18 05:29:39;;;;;;;15.35;11.52;;;;;;;18.89;100.00;94925.38;4969157;28;20056;-77
2022/08/18 05:32:13;;;;;;;12.40;10.55;;;;;;;19.08;100.00;94932.53;4988281;28;20128;-77
2022/08/18 05:35:11;;;;;;;13.90;10.50;;;;;;;19.22;100.00;94927.38;4976920;28;20041;-77
2022/08/18 05:37:47;;;;;;;11.50;9.85;;;;;;;19.32;100.00;94937.00;4969040;28;20728;-77
2022/08/18 05:40:14;;;;;;;16.23;10.18;;;;;;;19.43;100.00;94930.56;4982853;28;20401;-78
2022/08/18 05:42:42;;;;;;;15.07;10.35;;;;;;;19.31;100.00;94909.81;4984819;28;20507;-77
2022/08/18 05:45:14;;;;;;;14.35;10.13;;;;;;;19.31;100.00;94932.81;4983923;28;20049;-77
2022/08/18 05:47:41;;;;;;;16.35;10.25;;;;;;;19.52;100.00;94935.97;4984400;28;20126;-77
2022/08/18 05:50:12;;;;;;;16.30;10.23;;;;;;;19.54;100.00;94924.06;4973530;28;20193;-77
2022/08/18 05:52:42;;;;;;;16.30;9.18;;;;;;;19.66;100.00;94921.78;4995196;28;20034;-77
2022/08/18 05:58:06;;;;;;;13.20;10.27;;;;;;;19.92;100.00;94933.88;5001321;28;20062;-77
2022/08/18 06:00:35;;;;;;;15.27;9.75;;;;;;;20.04;100.00;94932.34;5000579;28;20049;-77
2022/08/18 06:03:18;;;;;;;10.48;8.68;;;;;;;20.16;100.00;94936.41;4979803;28;20061;-77
2022/08/18 06:05:56;;;;;;;11.40;9.50;;;;;;;20.25;100.00;94937.31;4994544;28;20053;-77
2022/08/18 06:08:39;;;;;;;12.90;9.90;;;;;;;20.45;100.00;94936.19;4995575;28;20856;-77
2022/08/18 06:11:06;;;;;;;11.63;10.07;;;;;;;20.51;98.48;94928.94;4978155;28;20045;-77
2022/08/18 06:13:49;;;;;;;17.05;9.30;;;;;;;20.66;97.62;94931.38;4998658;28;20049;-78
2022/08/18 06:16:35;;;;;;;12.23;9.05;;;;;;;20.77;96.88;94932.75;4967329;28;20047;-77
2022/08/18 06:19:41;;;;;;;11.88;8.30;;;;;;;20.92;96.79;94922.94;4973636;28;20034;-78
2022/08/18 06:22:16;;;;;;;10.50;8.02;;;;;;;21.08;96.34;94923.44;5019450;28;20392;-77
2022/08/18 06:24:56;;;;;;;15.40;8.60;;;;;;;21.23;95.41;94922.34;4986132;28;20034;-78
2022/08/18 06:27:41;;;;;;;16.20;8.48;;;;;;;21.40;95.29;94922.53;5017893;28;20061;-76
2022/08/18 06:30:19;;;;;;;21.65;9.77;;;;;;;21.52;95.17;94927.38;4999295;28;20079;-78
2022/08/18 06:33:04;;;;;;;18.83;9.20;;;;;;;21.65;94.74;94928.41;5017241;28;20056;-72
2022/08/18 06:35:53;;;;;;;20.90;9.10;;;;;;;21.75;93.42;94933.47;5019750;28;20050;-68
2022/08/18 06:38:37;;;;;;;20.55;8.73;;;;;;;21.81;93.37;94932.28;5019807;28;20100;-70
2022/08/18 06:41:20;;;;;;;20.92;8.25;;;;;;;21.93;94.34;94934.41;5020296;28;20037;-69
2022/08/18 06:44:29;;;;;;;26.67;8.63;;;;;;;22.11;93.61;94937.97;5001904;28;20052;-67
2022/08/18 06:47:02;;;;;;;22.95;8.98;;;;;;;22.27;91.59;94935.75;4992063;28;20041;-68
2022/08/18 06:49:45;;;;;;;;;;;;;;;22.42;89.93;94934.59;5014628;28;20041;-67
2022/08/18 06:52:32;;;;;;;21.60;7.68;;;;;;;22.59;89.57;94937.38;5016960;28;19931;-68
2022/08/18 06:55:04;;;;;;;14.90;7.47;;;;;;;22.77;88.40;94932.16;5016846;28;20049;-68
2022/08/18 06:57:35;;;;;;;18.38;7.78;;;;;;;23.02;86.86;94928.81;5016419;28;20041;-68
2022/08/18 07:00:16;;;;;;;12.43;8.45;;;;;;;23.29;86.06;94930.47;5016132;28;20045;-68
2022/08/18 07:03:05;;;;;;;10.30;7.45;;;;;;;23.42;84.77;94923.47;5013415;28;20128;-68
2022/08/18 07:05:35;;;;;;;10.13;6.07;;;;;;;23.50;81.55;94918.47;4996345;28;20056;-68
2022/08/18 07:08:35;;;;;;;16.25;6.72;;;;;;;23.42;82.50;94896.13;5016445;28;20057;-68
2022/08/18 07:11:24;;;;;;;13.13;6.72;;;;;;;23.67;82.32;94923.81;5018332;28;20053;-68
2022/08/18 07:13:55;;;;;;;19.33;7.38;;;;;;;23.84;81.64;94913.22;5017195;28;20060;-67
2022/08/18 07:16:41;;;;;;;11.35;7.30;;;;;;;24.06;79.76;94919.47;5008961;28;20550;-67
2022/08/18 07:19:29;;;;;;;16.73;6.55;;;;;;;24.22;79.41;94923.22;5010986;28;20041;-67
2022/08/18 07:22:17;;;;;;;10.68;6.47;;;;;;;24.32;76.44;94927.41;5013137;28;20489;-68
2022/08/18 07:24:51;;;;;;;10.23;5.93;;;;;;;24.44;76.62;94924.13;5011487;28;20121;-69
2022/08/18 07:27:20;;;;;;;;;;;;;;;24.55;76.08;94920.03;5018206;28;20057;-71
2022/08/18 07:30:13;;;;;;;11.95;6.25;;;;;;;24.69;74.66;94913.75;5017254;28;20019;-71
2022/08/18 07:33:11;;;;;;;12.13;7.45;;;;;;;24.82;74.74;94907.44;5001605;28;20049;-71
2022/08/18 07:35:48;;;;;;;12.05;6.63;;;;;;;24.98;72.83;94911.13;5008388;28;20057;-71
2022/08/18 07:38:16;;;;;;;14.80;6.57;;;;;;;25.16;71.79;94921.69;4996755;28;20456;-71
2022/08/18 07:41:34;;;;;;;8.65;5.95;;;;;;;25.21;71.37;94915.38;5017023;28;20782;-71
2022/08/18 07:44:24;;;;;;;8.90;6.32;;;;;;;25.31;71.50;94902.50;5014860;28;20033;-71
2022/08/18 07:46:58;;;;;;;11.18;7.30;;;;;;;25.46;72.19;94913.72;5015791;28;20668;-71
2022/08/18 07:49:29;;;;;;;22.33;7.80;;;;;;;25.64;70.63;94907.19;4992862;28;20124;-71
2022/08/18 07:52:03;;;;;;;15.00;5.78;;;;;;;25.79;69.80;94905.03;4994275;28;20083;-69
2022/08/18 07:54:48;;;;;;;9.55;5.45;;;;;;;25.80;69.34;94911.91;5011035;28;20046;-71
2022/08/18 07:57:42;;;;;;;11.20;6.30;;;;;;;25.95;68.78;94919.38;5010669;28;20107;-70
2022/08/18 08:00:15;;;;;;;12.27;6.15;;;;;;;26.16;68.04;94913.22;5014107;28;20046;-70
2022/08/18 08:03:22;;;;;;;11.60;6.30;;;;;;;26.35;68.08;94910.06;4998664;28;20069;-70
2022/08/18 08:06:06;;;;;;;20.98;7.00;;;;;;;26.45;68.53;94914.97;5014342;28;20048;-70
2022/08/18 08:08:33;;;;;;;7.70;5.45;;;;;;;26.62;68.17;94911.38;5015328;28;20574;-70
2022/08/18 08:11:15;;;;;;;12.63;6.20;;;;;;;26.75;65.85;94901.47;5016477;28;20053;-71
2022/08/18 08:13:56;;;;;;;16.23;5.85;;;;;;;26.91;62.81;94914.97;5019193;28;20458;-69
2022/08/18 08:17:08;;;;;;;13.40;5.50;;;;;;;26.94;62.44;94903.59;5017279;28;20061;-69
2022/08/18 08:19:50;;;;;;;10.70;6.05;;;;;;;27.09;61.94;94911.75;4998129;28;20545;-71
2022/08/18 08:22:53;;;;;;;13.27;6.07;;;;;;;27.32;61.64;94910.56;5017172;28;20871;-71
2022/08/18 08:25:36;;;;;;;13.88;5.97;;;;;;;27.63;57.62;94907.25;5017506;28;20514;-71
2022/08/18 08:28:27;;;;;;;16.48;5.95;;;;;;;27.83;57.31;94894.84;5003759;28;20063;-70
2022/08/18 08:31:15;;;;;;;18.02;5.53;;;;;;;27.96;56.36;94903.63;5014062;28;20132;-70
2022/08/18 08:34:25;;;;;;;13.90;5.22;;;;;;;28.07;54.62;94909.28;4996832;28;20049;-70
2022/08/18 08:37:00;;;;;;;10.52;6.13;;;;;;;28.21;54.03;94896.28;4999142;28;20057;-70
2022/08/18 08:39:56;;;;;;;9.07;5.47;;;;;;;28.38;54.51;94892.53;5016495;28;20168;-70
2022/08/18 08:42:30;;;;;;;9.10;5.25;;;;;;;28.54;51.76;94905.94;4993589;28;20514;-70
2022/08/18 08:45:20;;;;;;;19.08;5.82;;;;;;;28.62;50.02;94896.22;5013830;28;20057;-69
2022/08/18 08:48:08;;;;;;;9.20;4.68;;;;;;;28.59;49.71;94908.38;5014948;28;20041;-70
2022/08/18 08:50:43;;;;;;;11.20;4.93;;;;;;;28.59;48.90;94892.31;5018096;28;20105;-70
2022/08/18 08:53:16;;;;;;;6.88;4.25;;;;;;;29.02;47.31;94893.34;5017183;28;20404;-71
2022/08/18 08:55:48;;;;;;;7.65;5.63;;;;;;;29.11;46.39;94885.88;5019948;28;20037;-69
2022/08/18 08:58:29;;;;;;;7.47;4.53;;;;;;;29.04;45.13;94891.09;5017016;28;20628;-69
2022/08/18 09:00:57;;;;;;;7.50;4.53;;;;;;;29.13;45.41;94889.00;5017007;28;20127;-68
2022/08/18 09:03:33;;;;;;;12.45;5.45;;;;;;;29.35;44.94;94894.88;5001516;28;20095;-71
2022/08/18 09:06:29;;;;;;;7.18;4.85;;;;;;;29.62;44.64;94898.53;5017810;28;20060;-70
2022/08/18 09:09:41;;;;;;;13.00;5.65;;;;;;;29.46;43.52;94863.72;4981201;28;20061;-70
2022/08/18 09:12:33;;;;;;;8.70;4.30;;;;;;;29.58;43.50;94886.94;5007723;28;20164;-68
2022/08/18 09:15:21;;;;;;;9.05;5.20;;;;;;;29.52;43.99;94878.38;5015770;28;20092;-70
2022/08/18 09:17:53;;;;;;;11.25;5.07;;;;;;;29.66;44.49;94879.84;5013099;28;20083;-69
2022/08/18 09:20:39;;;;;;;8.88;4.35;;;;;;;29.99;43.36;94878.59;5015099;28;20041;-68
2022/08/18 09:23:16;;;;;;;14.80;4.68;;;;;;;30.20;43.10;94876.31;5001213;28;20473;-69
2022/08/18 09:25:54;;;;;;;5.43;4.10;;;;;;;30.19;41.69;94872.06;5015029;28;20046;-69
2022/08/18 09:28:26;;;;;;;5.93;4.18;;;;;;;30.56;40.70;94866.22;5016700;28;20042;-70
2022/08/18 09:31:05;;;;;;;4.82;3.85;;;;;;;30.79;37.26;94870.81;5020343;28;20152;-70
2022/08/18 09:33:39;;;;;;;8.43;3.60;;;;;;;30.90;38.26;94866.41;5017578;28;20568;-70
2022/08/18 09:36:39;;;;;;;8.68;3.90;;;;;;;30.93;36.81;94865.69;5017029;28;20048;-69
2022/08/18 09:42:38;;;;;;;4.20;3.83;;;;;;;31.41;37.37;94847.16;5009612;28;20045;-69
2022/08/18 09:45:31;;;;;;;8.43;3.70;;;;;;;31.47;36.76;94850.31;5018571;28;20037;-69
2022/08/18 09:48:25;;;;;;;5.95;4.10;;;;;;;31.42;36.56;94854.09;5001993;28;20514;-69
2022/08/18 09:51:14;;;;;;;10.52;4.20;;;;;;;31.53;36.13;94869.63;5018637;28;20439;-68
2022/08/18 09:53:46;;;;;;;4.93;4.18;;;;;;;31.54;36.27;94834.28;4997846;28;20053;-68
2022/08/18 09:56:15;;;;;;;7.75;4.15;;;;;;;31.81;35.91;94848.44;5011535;28;20598;-70
2022/08/18 09:58:59;;;;;;;5.20;4.15;;;;;;;31.75;35.70;94833.78;5015276;28;20045;-69
2022/08/18 10:01:30;;;;;;;6.15;4.25;;;;;;;31.88;35.14;94855.06;5017538;28;20045;-69
2022/08/18 10:04:13;;;;;;;12.45;4.28;;;;;;;32.03;36.43;94837.91;5015225;28;20534;-69
2022/08/18 10:06:42;;;;;;;8.40;3.72;;;;;;;32.03;35.52;94820.97;5002750;28;20041;-69
2022/08/18 10:09:29;;;;;;;7.28;3.92;;;;;;;32.43;35.10;94828.34;5014335;28;20145;-70
2022/08/18 10:12:27;;;;;;;6.35;3.90;;;;;;;32.73;33.84;94840.94;4997795;28;20053;-69
2022/08/18 10:15:13;;;;;;;5.35;3.65;;;;;;;32.34;33.84;94831.34;5001103;28;20054;-70
2022/08/18 10:18:14;;;;;;;7.45;3.70;;;;;;;32.54;33.69;94823.81;5018525;28;20554;-69
2022/08/18 10:20:48;;;;;;;6.90;4.07;;;;;;;32.70;32.84;94825.50;4989139;28;20566;-71
2022/08/18 10:23:48;;;;;;;8.70;3.85;;;;;;;32.68;34.19;94827.78;5021850;28;20430;-69
2022/08/18 10:26:39;;;;;;;5.25;3.22;;;;;;;32.30;33.34;94818.97;5017026;28;20048;-69
2022/08/18 10:29:22;;;;;;;5.60;4.10;;;;;;;32.34;33.25;94820.56;5016845;28;20055;-69
2022/08/18 10:31:55;;;;;;;7.85;4.18;;;;;;;32.58;32.82;94807.66;5017850;28;20041;-69
2022/08/18 10:34:44;;;;;;;7.50;4.22;;;;;;;32.96;32.66;94811.81;5016894;28;20038;-70
2022/08/18 10:37:29;;;;;;;6.90;3.70;;;;;;;33.21;31.42;94816.63;5014246;28;20136;-69
2022/08/18 10:40:21;;;;;;;3.88;3.45;;;;;;;33.73;30.36;94813.81;5011733;28;20053;-68
2022/08/18 10:43:16;;;;;;;4.75;3.75;;;;;;;33.99;29.00;94815.41;5012447;28;20144;-74
2022/08/18 10:46:04;;;;;;;5.25;3.70;;;;;;;33.89;30.04;94810.78;5017222;28;20045;-68
2022/08/18 10:49:01;;;;;;;7.88;3.78;;;;;;;34.16;30.18;94821.25;5017160;28;20453;-68
2022/08/18 10:51:48;;;;;;;8.20;4.30;;;;;;;34.36;28.94;94811.66;5017448;28;20135;-67
2022/08/18 10:54:55;;;;;;;11.32;3.72;;;;;;;34.60;28.34;94817.47;5017397;28;20604;-68
2022/08/18 10:57:36;;;;;;;6.28;3.65;;;;;;;34.80;27.75;94807.03;5019748;28;20041;-66
2022/08/18 11:00:13;;;;;;;6.22;3.20;;;;;;;34.14;27.91;94818.94;5019652;28;20050;-67
2022/08/18 11:03:15;;;;;;;5.55;3.10;;;;;;;34.09;27.86;94803.09;5018234;28;20556;-68
2022/08/18 11:06:05;;;;;;;12.57;3.38;;;;;;;34.18;27.68;94817.03;5020275;28;20045;-68
2022/08/18 11:08:47;;;;;;;4.57;3.25;;;;;;;34.43;26.40;94808.16;5020601;28;20083;-67
2022/08/18 11:11:25;;;;;;;3.47;2.53;;;;;;;34.54;25.87;94806.25;5019199;28;20048;-67
2022/08/18 11:14:41;;;;;;;7.30;3.22;;;;;;;34.48;25.96;94807.78;5018392;28;20044;-68
2022/08/18 11:17:32;;;;;;;5.85;2.90;;;;;;;34.20;26.72;94803.16;5000181;28;20052;-68
2022/08/18 11:20:03;;;;;;;6.22;2.92;;;;;;;34.40;26.96;94801.63;5000698;28;20053;-68
2022/08/18 11:22:33;;;;;;;5.43;3.47;;;;;;;34.53;26.44;94803.94;5001228;28;20038;-68
2022/08/18 11:25:16;;;;;;;3.80;3.10;;;;;;;34.81;26.24;94803.97;4997676;28;20038;-68
2022/08/18 11:27:46;;;;;;;4.63;3.40;;;;;;;35.03;24.45;94803.94;4997095;28;20050;-69
2022/08/18 11:30:14;;;;;;;6.25;3.50;;;;;;;35.26;24.93;94797.31;4999961;28;20045;-69
2022/08/18 11:32:44;;;;;;;5.30;3.00;;;;;;;35.58;24.19;94811.53;5000061;28;20528;-69
2022/08/18 11:35:26;;;;;;;3.30;2.92;;;;;;;35.59;24.99;94802.22;4998230;28;20535;-68
2022/08/18 11:38:00;;;;;;;3.65;3.13;;;;;;;35.72;23.89;94799.13;5000706;28;20057;-79
2022/08/18 11:40:38;;;;;;;5.30;2.78;;;;;;;35.77;23.53;94804.13;4983710;28;20052;-78
2022/08/18 11:43:35;;;;;;;3.10;2.80;;;;;;;35.97;22.91;94802.47;4999999;28;20068;-79
2022/08/18 11:46:24;;;;;;;3.47;2.47;;;;;;;36.35;22.02;94789.06;4990651;28;20061;-80
2022/08/18 11:48:59;;;;;;;5.32;2.70;;;;;;;36.85;21.70;94812.34;4980559;28;20100;-77
2022/08/18 11:51:30;;;;;;;2.72;2.35;;;;;;;36.56;21.27;94800.94;4998926;28;20579;-76
2022/08/18 11:54:16;;;;;;;2.88;2.40;;;;;;;36.73;22.58;94789.22;4981029;28;20049;-78
2022/08/18 11:56:44;;;;;;;9.68;3.00;;;;;;;36.78;21.30;94784.50;4981066;28;20053;-75
2022/08/18 11:59:31;;;;;;;4.30;2.78;;;;;;;36.83;21.23;94792.22;4980331;28;20045;-75
2022/08/18 12:02:21;;;;;;;4.00;2.72;;;;;;;36.97;21.08;94792.09;4983070;28;20042;-75
2022/08/18 12:04:52;;;;;;;2.92;2.63;;;;;;;37.00;22.45;94791.25;4994582;28;20042;-76
2022/08/18 12:07:45;;;;;;;3.88;2.53;;;;;;;37.55;20.47;94792.25;4989207;28;20045;-68
2022/08/18 12:10:32;;;;;;;3.50;2.72;;;;;;;37.52;19.77;94786.88;5005597;28;20041;-68
2022/08/18 12:12:59;;;;;;;2.95;2.65;;;;;;;37.24;21.35;94783.28;5008874;28;20047;-68
2022/08/18 12:15:30;;;;;;;4.35;2.83;;;;;;;37.49;21.53;94772.94;5010678;28;20586;-68
2022/08/18 12:18:16;;;;;;;9.55;2.80;;;;;;;38.22;21.26;94768.09;4997687;28;20541;-67
2022/08/18 12:20:56;;;;;;;4.35;2.90;;;;;;;38.98;20.88;94773.06;5025632;28;20134;-69
2022/08/18 12:23:24;;;;;;;8.65;2.90;;;;;;;39.65;19.51;94761.31;4965176;28;20104;-69